createdAt,value
2022-09-14T00:00:16.843Z,99154.31
2022-09-14T00:05:18.688Z,99160.38
2022-09-14T00:10:20.262Z,99157.06
2022-09-14T00:15:22.132Z,99151.59
2022-09-14T00:20:23.732Z,99144.88
2022-09-14T00:25:26.552Z,99140.56
2022-09-14T00:30:28.640Z,99137.50
2022-09-14T00:35:30.444Z,99128.41
2022-09-14T00:40:32.459Z,99117.44
2022-09-14T00:45:34.272Z,99111.41
2022-09-14T00:50:36.588Z,99111.59
2022-09-14T00:55:39.036Z,99098.69
2022-09-14T01:00:40.982Z,99089.31
2022-09-14T01:05:50.261Z,99089.44
2022-09-14T01:17:30.558Z,99096.94
2022-09-14T01:22:40.733Z,99093.63
2022-09-14T01:27:45.093Z,99090.22
2022-09-14T01:32:57.110Z,99088.59
2022-09-14T01:38:10.413Z,99100.44
2022-09-14T01:43:18.404Z,99094.56
2022-09-14T01:48:27.078Z,99093.00
2022-09-14T01:53:49.979Z,99088.09
2022-09-14T01:59:20.799Z,99094.88
2022-09-14T02:04:36.405Z,99097.41
2022-09-14T02:09:39.341Z,99086.41
2022-09-14T02:14:43.675Z,99089.84
2022-09-14T02:19:53.198Z,99079.69
2022-09-14T02:24:55.777Z,99083.88
2022-09-14T02:29:58.467Z,99088.09
2022-09-14T02:35:20.064Z,99078.84
2022-09-14T02:40:37.967Z,99073.81
2022-09-14T02:45:58.506Z,99067.00
2022-09-14T02:51:28.142Z,99054.34
2022-09-14T02:56:29.945Z,99038.03
2022-09-14T03:01:31.807Z,99026.13
2022-09-14T03:06:33.949Z,99040.44
2022-09-14T03:11:36.069Z,99042.94
2022-09-14T03:16:39.237Z,99050.53
2022-09-14T03:21:41.031Z,99053.84
2022-09-14T03:26:42.977Z,99058.84
2022-09-14T03:31:44.812Z,99036.00
2022-09-14T03:36:46.676Z,99032.78
2022-09-14T03:41:48.286Z,99026.03
2022-09-14T03:46:50.001Z,99053.09
2022-09-14T03:51:52.873Z,99049.69
2022-09-14T03:56:56.330Z,99042.84
2022-09-14T04:01:58.391Z,99038.66
2022-09-14T04:06:59.990Z,99058.13
2022-09-14T04:12:01.982Z,99052.28
2022-09-14T04:17:04.536Z,99052.28
2022-09-14T04:22:06.449Z,99061.53
2022-09-14T04:27:08.266Z,99067.44
2022-09-14T04:32:10.070Z,99067.41
2022-09-14T04:37:12.076Z,99059.94
2022-09-14T04:42:13.677Z,99046.44
2022-09-14T04:47:15.605Z,99033.03
2022-09-14T04:52:18.235Z,99029.88
2022-09-14T04:57:19.854Z,99028.13
2022-09-14T05:02:21.811Z,99028.91
2022-09-14T05:07:23.511Z,99018.59
2022-09-14T05:12:25.351Z,99007.56
2022-09-14T05:17:26.935Z,99021.00
2022-09-14T05:22:28.546Z,99032.78
2022-09-14T05:27:30.393Z,99047.84
2022-09-14T05:32:32.176Z,99051.00
2022-09-14T05:37:33.969Z,99050.06
2022-09-14T05:42:36.409Z,99045.56
2022-09-14T05:47:39.293Z,99037.81
2022-09-14T05:52:41.469Z,99035.94
2022-09-14T05:57:43.253Z,99029.03
2022-09-14T06:02:49.611Z,99017.88
2022-09-14T06:07:53.199Z,99013.59
2022-09-14T06:12:55.596Z,99010.22
2022-09-14T06:17:57.616Z,99005.84
2022-09-14T06:22:59.493Z,98987.78
2022-09-14T06:28:01.157Z,99006.19
2022-09-14T06:33:04.856Z,99011.81
2022-09-14T06:38:07.627Z,99021.69
2022-09-14T06:43:09.726Z,99018.09
2022-09-14T06:48:11.567Z,99044.91
2022-09-14T06:53:13.210Z,99046.47
2022-09-14T06:58:14.992Z,99047.03
2022-09-14T07:03:16.807Z,99050.16
2022-09-14T07:08:18.664Z,99034.59
2022-09-14T07:13:20.601Z,99050.56
2022-09-14T07:18:23.530Z,99040.28
2022-09-14T07:23:25.136Z,99046.16
2022-09-14T07:28:27.494Z,99062.13
2022-09-14T07:33:29.970Z,99060.25
2022-09-14T07:38:50.969Z,99045.16
2022-09-14T07:43:56.649Z,99049.53
2022-09-14T07:49:00.926Z,99047.25
2022-09-14T07:54:03.693Z,99041.16
2022-09-14T08:04:27.446Z,99051.59
2022-09-14T08:09:29.350Z,99068.03
2022-09-14T08:14:30.970Z,99070.66
2022-09-14T08:19:32.566Z,99059.69
2022-09-14T08:24:34.855Z,99058.31
2022-09-14T08:29:36.468Z,99046.88
2022-09-14T08:34:38.340Z,99039.03
2022-09-14T08:39:39.916Z,99033.72
2022-09-14T08:44:44.570Z,99035.81
2022-09-14T08:49:48.065Z,99031.22
2022-09-14T08:54:53.741Z,99027.91
2022-09-14T09:00:00.914Z,99034.44
2022-09-14T09:05:32.767Z,99031.19
2022-09-14T09:10:38.586Z,99040.47
2022-09-14T09:15:49.092Z,99031.59
2022-09-14T09:20:54.907Z,99033.81
2022-09-14T09:26:27.442Z,99028.09
2022-09-14T09:31:36.424Z,99033.88
2022-09-14T09:37:04.733Z,99017.88
2022-09-14T09:42:13.049Z,99024.25
2022-09-14T09:47:14.854Z,99025.66
2022-09-14T09:52:17.567Z,99022.63
2022-09-14T09:57:36.937Z,99031.75
2022-09-14T10:02:39.732Z,99038.09
2022-09-14T10:07:50.325Z,99031.19
2022-09-14T10:12:55.256Z,99036.75
2022-09-14T10:18:11.994Z,99039.69
2022-09-14T10:23:19.528Z,99066.72
2022-09-14T10:28:29.131Z,99082.34
2022-09-14T10:33:31.024Z,99074.31
2022-09-14T10:38:44.138Z,99090.97
2022-09-14T10:43:52.256Z,99087.53
2022-09-14T10:49:13.919Z,99079.09
2022-09-14T10:54:33.788Z,99058.97
2022-09-14T10:59:44.422Z,99054.88
2022-09-14T11:05:19.334Z,99021.69
2022-09-14T11:10:38.746Z,99025.97
2022-09-14T11:16:04.956Z,99002.19
2022-09-14T11:21:21.952Z,98977.41
2022-09-14T11:26:31.490Z,98962.63
2022-09-14T11:31:40.666Z,98957.66
2022-09-14T11:36:54.597Z,98975.13
2022-09-14T11:42:00.910Z,98977.13
2022-09-14T11:47:05.257Z,98963.34
2022-09-14T11:52:23.984Z,98955.69
2022-09-14T11:57:33.639Z,98957.66
2022-09-14T12:02:38.039Z,98942.47
2022-09-14T12:07:39.959Z,98921.78
2022-09-14T12:12:44.397Z,98891.03
2022-09-14T12:17:46.121Z,98868.38
2022-09-14T12:22:50.289Z,98853.59
2022-09-14T12:27:52.336Z,98843.38
2022-09-14T12:32:53.984Z,98828.09
2022-09-14T12:37:55.595Z,98820.00
2022-09-14T12:42:57.238Z,98814.31
2022-09-14T12:47:58.904Z,98804.91
2022-09-14T12:53:24.417Z,98802.50
2022-09-14T12:58:42.131Z,98804.66
2022-09-14T13:03:48.687Z,98799.81
2022-09-14T13:08:55.345Z,98793.97
2022-09-14T13:13:58.070Z,98802.63
2022-09-14T13:19:02.574Z,98797.22
2022-09-14T13:24:18.632Z,98802.00
2022-09-14T13:29:21.076Z,98799.06
2022-09-14T13:34:38.682Z,98792.72
2022-09-14T13:39:41.976Z,98792.00
2022-09-14T13:44:46.631Z,98782.28
2022-09-14T13:49:50.734Z,98790.44
2022-09-14T13:55:14.450Z,98794.78
2022-09-14T14:00:22.110Z,98790.53
2022-09-14T14:05:30.342Z,98805.78
2022-09-14T14:10:36.455Z,98821.09
2022-09-14T14:15:38.048Z,98812.28
2022-09-14T14:20:40.173Z,98812.00
2022-09-14T14:25:48.350Z,98806.22
2022-09-14T14:30:50.815Z,98812.38
2022-09-14T14:35:54.586Z,98786.56
2022-09-14T14:40:58.142Z,98807.00
2022-09-14T14:46:01.456Z,98774.72
2022-09-14T14:51:03.586Z,98776.28
2022-09-14T14:56:05.743Z,98765.88
2022-09-14T15:01:08.678Z,98775.41
2022-09-14T15:06:23.133Z,98777.03
2022-09-14T15:11:24.875Z,98771.91
2022-09-14T15:16:26.706Z,98771.78
2022-09-14T15:21:28.654Z,98781.19
2022-09-14T15:26:30.670Z,98777.44
2022-09-14T15:31:36.230Z,98772.56
2022-09-14T15:36:52.702Z,98767.00
2022-09-14T15:41:55.308Z,98769.66
2022-09-14T15:46:57.573Z,98767.09
2022-09-14T15:51:59.383Z,98750.72
2022-09-14T15:57:01.293Z,98747.16
2022-09-14T16:02:03.943Z,98738.63
2022-09-14T16:07:09.975Z,98720.81
2022-09-14T16:12:13.360Z,98731.00
2022-09-14T16:17:15.706Z,98732.22
2022-09-14T16:22:17.695Z,98725.63
2022-09-14T16:27:19.298Z,98722.78
2022-09-14T16:32:22.178Z,98724.09
2022-09-14T16:37:24.060Z,98728.94
2022-09-14T16:42:25.830Z,98735.50
2022-09-14T16:47:27.588Z,98690.66
2022-09-14T16:52:29.977Z,98681.19
2022-09-14T16:57:31.802Z,98688.53
2022-09-14T17:02:33.668Z,98672.75
2022-09-14T17:07:35.406Z,98661.28
2022-09-14T17:12:37.293Z,98655.78
2022-09-14T17:17:39.072Z,98643.59
2022-09-14T17:22:40.694Z,98646.88
2022-09-14T17:27:42.312Z,98643.00
2022-09-14T17:32:43.913Z,98641.75
2022-09-14T17:37:45.514Z,98637.09
2022-09-14T17:42:47.283Z,98639.09
2022-09-14T17:47:49.134Z,98639.53
2022-09-14T17:52:51.385Z,98650.06
2022-09-14T17:57:53.191Z,98629.91
2022-09-14T18:02:55.103Z,98627.50
2022-09-14T18:07:57.237Z,98619.16
2022-09-14T18:12:59.032Z,98627.09
2022-09-14T18:18:00.791Z,98623.97
2022-09-14T18:23:02.914Z,98619.09
2022-09-14T18:28:05.351Z,98625.25
2022-09-14T18:33:06.962Z,98617.72
2022-09-14T18:38:09.169Z,98605.50
2022-09-14T18:43:11.189Z,98614.41
2022-09-14T18:48:14.228Z,98627.63
2022-09-14T18:53:16.056Z,98619.94
2022-09-14T18:58:17.625Z,98602.03
2022-09-14T19:03:19.194Z,98601.38
2022-09-14T19:08:23.922Z,98612.41
2022-09-14T19:13:25.677Z,98624.56
2022-09-14T19:18:27.251Z,98630.63
2022-09-14T19:23:28.823Z,98613.59
2022-09-14T19:28:30.649Z,98617.97
2022-09-14T19:33:32.832Z,98605.06
2022-09-14T19:38:34.611Z,98632.59
2022-09-14T19:43:36.578Z,98691.56
2022-09-14T19:48:39.020Z,98750.81
2022-09-14T19:53:41.404Z,98774.31
2022-09-14T19:58:46.560Z,98799.56
2022-09-14T20:03:49.811Z,98813.00
2022-09-14T20:09:00.290Z,98837.44
2022-09-14T20:14:04.770Z,98868.16
2022-09-14T20:19:09.491Z,98879.22
2022-09-14T20:24:18.672Z,98861.31
2022-09-14T20:29:23.019Z,98843.69
2022-09-14T20:34:25.216Z,98816.25
2022-09-14T20:39:27.764Z,98714.63
2022-09-14T20:44:29.382Z,98768.28
2022-09-14T20:49:31.327Z,98742.53
2022-09-14T20:54:33.102Z,98715.38
2022-09-14T20:59:35.063Z,98724.63
2022-09-14T21:04:36.750Z,98726.31
2022-09-14T21:09:39.151Z,98695.63
2022-09-14T21:14:42.413Z,98676.97
2022-09-14T21:19:44.138Z,98700.88
2022-09-14T21:24:45.801Z,98695.00
2022-09-14T21:29:49.764Z,98721.63
2022-09-14T21:34:51.342Z,98708.09
2022-09-14T21:39:54.106Z,98710.78
2022-09-14T21:44:55.718Z,98707.44
2022-09-14T21:49:57.341Z,98709.16
2022-09-14T21:54:58.981Z,98723.56
2022-09-14T22:00:00.959Z,98725.25
2022-09-14T22:05:03.853Z,98732.16
2022-09-14T22:10:06.529Z,98735.78
2022-09-14T22:15:09.191Z,98721.50
2022-09-14T22:20:11.627Z,98728.63
2022-09-14T22:25:13.445Z,98720.41
2022-09-14T22:30:15.600Z,98719.78
2022-09-14T22:35:17.235Z,98718.97
2022-09-14T22:40:19.153Z,98709.75
2022-09-14T22:45:20.970Z,98709.03
2022-09-14T22:50:22.665Z,98705.06
2022-09-14T22:55:25.564Z,98717.38
2022-09-14T23:00:27.213Z,98726.31
2022-09-14T23:05:29.041Z,98736.81
2022-09-14T23:10:31.117Z,98713.06
2022-09-14T23:15:37.528Z,98706.44
2022-09-14T23:20:40.644Z,98728.66
2022-09-14T23:25:42.474Z,98734.91
2022-09-14T23:30:52.332Z,98732.28
2022-09-14T23:35:54.446Z,98734.81
2022-09-14T23:40:58.465Z,98728.13
2022-09-14T23:46:00.249Z,98722.19
2022-09-14T23:51:05.448Z,98718.75
2022-09-14T23:56:07.993Z,98719.50
